Huvudsida
METAR-TAF:

METAR-TAF

Flygplatser :

Sandane flygplats. Anda

Sandane, Norge

latitud: 61-50N, longitud: 006-07E, höjd: 6 m

Aktuellt väderrapport

Denna rapport gjordes för 3 timmar och 40 minuter sedan, klockan 19:50 UTC
Vind 2 kt från väst/sydväst, varierande mellan syd/sydost och väst
Temperatur 6°C
Fuktighet 87%
Tryck 1007 hPa
Sikt 10 km eller mer
Få moln på en höjd av 2600 ft
Brutna moln på en höjd av 3400 ft
lätt regn

METAR: ENSD 221950Z 24002KT 150V270 9999 -RA FEW026 BKN034 06/04 Q1007 RMK WIND 1138FT 21008KT

Tid: 00:30 (23:30 UTC)


TAF: saknas

Aktuella väderrapporter och prognoser från 4000 flygplatser (METAR- och TAF-rapporter).

De tillgängliga stationerna syns som gula och röda prickar på kartan.

För musen över prickarna för att se namnen på stationerna.

Klicka sedan för att få väderrapporter och prognoser.

För att ändra kartan: Klicka på de gröna knapparna med ett svart kors på för att zooma in; den gröna knappen med ett streck på för att zooma ut; eller på de gröna pilarna för angränsande kartor.


METAR-TAF: